createdAt,value
2018-04-19T00:01:16.335Z,93.70
2018-04-19T00:03:45.904Z,93.50
2018-04-19T00:06:13.987Z,93.50
2018-04-19T00:08:42.080Z,92.70
2018-04-19T00:11:10.111Z,92.20
2018-04-19T00:13:38.171Z,91.50
2018-04-19T00:16:06.232Z,91.10
2018-04-19T00:18:34.301Z,90.90
2018-04-19T00:21:02.352Z,90.50
2018-04-19T00:23:30.473Z,90.50
2018-04-19T00:25:58.560Z,89.80
2018-04-19T00:28:26.619Z,90.10
2018-04-19T00:30:55.428Z,90.50
2018-04-19T00:33:24.267Z,91.00
2018-04-19T00:35:52.311Z,91.00
2018-04-19T00:38:21.132Z,92.00
2018-04-19T00:40:49.193Z,92.00
2018-04-19T00:43:18.008Z,92.30
2018-04-19T00:45:46.058Z,92.30
2018-04-19T00:48:14.124Z,91.90
2018-04-19T00:50:42.172Z,91.40
2018-04-19T00:53:10.229Z,91.30
2018-04-19T00:55:39.047Z,91.40
2018-04-19T00:58:07.869Z,92.10
2018-04-19T01:00:35.952Z,92.10
2018-04-19T01:03:04.136Z,91.70
2018-04-19T01:05:32.190Z,90.70
2018-04-19T01:08:00.304Z,90.50
2018-04-19T01:10:28.347Z,90.10
2018-04-19T01:12:56.407Z,90.10
2018-04-19T01:15:24.457Z,88.60
2018-04-19T01:17:52.519Z,87.80
2018-04-19T01:20:21.332Z,87.50
2018-04-19T01:22:49.439Z,87.50
2018-04-19T01:25:17.485Z,87.00
2018-04-19T01:27:45.549Z,86.60
2018-04-19T01:30:13.588Z,86.80
2018-04-19T01:32:41.643Z,87.40
2018-04-19T01:35:10.460Z,86.40
2018-04-19T01:37:39.279Z,86.20
2018-04-19T01:40:07.333Z,86.20
2018-04-19T01:42:36.164Z,85.90
2018-04-19T01:45:04.208Z,85.70
2018-04-19T01:47:32.259Z,84.80
2018-04-19T01:50:00.328Z,83.30
2018-04-19T01:52:28.378Z,82.60
2018-04-19T01:54:57.302Z,81.60
2018-04-19T01:57:26.114Z,81.40
2018-04-19T01:59:54.163Z,82.20
2018-04-19T02:02:22.998Z,81.00
2018-04-19T02:04:51.073Z,80.90
2018-04-19T02:07:19.164Z,81.50
2018-04-19T02:09:47.228Z,81.60
2018-04-19T02:12:16.034Z,83.40
2018-04-19T02:14:44.133Z,82.60
2018-04-19T02:17:12.180Z,83.40
2018-04-19T02:19:40.246Z,82.00
2018-04-19T02:22:08.288Z,83.10
2018-04-19T02:24:36.348Z,81.80
2018-04-19T02:27:05.158Z,82.00
2018-04-19T02:29:33.216Z,81.90
2018-04-19T02:32:02.068Z,82.60
2018-04-19T02:34:30.126Z,83.00
2018-04-19T02:36:58.944Z,83.80
2018-04-19T02:39:27.002Z,83.70
2018-04-19T02:41:55.827Z,84.00
2018-04-19T02:44:24.641Z,84.30
2018-04-19T02:46:52.684Z,84.30
2018-04-19T02:49:20.804Z,83.90
2018-04-19T02:51:48.852Z,84.10
2018-04-19T02:54:16.983Z,83.80
2018-04-19T02:56:45.031Z,83.40
2018-04-19T02:59:13.852Z,83.50
2018-04-19T03:01:41.956Z,83.60
2018-04-19T03:04:10.040Z,82.80
2018-04-19T03:06:38.083Z,83.40
2018-04-19T03:09:06.909Z,83.30
2018-04-19T03:11:34.971Z,83.30
2018-04-19T03:14:03.794Z,84.00
2018-04-19T03:16:31.844Z,83.90
2018-04-19T03:18:59.904Z,82.90
2018-04-19T03:21:28.192Z,83.60
2018-04-19T03:23:56.251Z,83.90
2018-04-19T03:26:24.308Z,82.90
2018-04-19T03:28:53.139Z,83.30
2018-04-19T03:31:21.191Z,83.30
2018-04-19T03:33:50.033Z,83.70
2018-04-19T03:36:18.074Z,83.70
2018-04-19T03:38:46.913Z,83.30
2018-04-19T03:41:14.955Z,83.30
2018-04-19T03:43:43.077Z,83.60
2018-04-19T03:46:11.127Z,83.50
2018-04-19T03:48:39.191Z,82.40
2018-04-19T03:51:07.239Z,82.40
2018-04-19T03:53:35.325Z,81.70
2018-04-19T03:56:03.385Z,81.30
2018-04-19T03:58:32.311Z,79.90
2018-04-19T04:01:00.399Z,79.90
2018-04-19T04:03:29.228Z,79.20
2018-04-19T04:05:57.291Z,79.20
2018-04-19T04:08:25.339Z,79.20
2018-04-19T04:10:54.160Z,78.10
2018-04-19T04:13:22.213Z,78.10
2018-04-19T04:15:50.339Z,78.90
2018-04-19T04:18:36.172Z,78.60
2018-04-19T04:21:18.087Z,79.20
2018-04-19T04:23:53.911Z,79.20
2018-04-19T04:26:22.004Z,79.20
2018-04-19T04:28:51.014Z,79.50
2018-04-19T04:31:19.116Z,79.90
2018-04-19T04:33:47.892Z,79.60
2018-04-19T04:36:15.946Z,79.60
2018-04-19T04:38:43.987Z,80.80
2018-04-19T04:41:12.149Z,81.10
2018-04-19T04:43:40.196Z,79.80
2018-04-19T04:46:08.247Z,80.70
2018-04-19T04:48:36.295Z,80.10
2018-04-19T04:51:04.354Z,80.90
2018-04-19T04:53:33.168Z,81.70
2018-04-19T04:56:01.991Z,80.90
2018-04-19T04:58:30.060Z,80.90
2018-04-19T05:00:58.983Z,82.00
2018-04-19T05:03:27.036Z,82.10
2018-04-19T05:05:55.859Z,83.00
2018-04-19T05:08:23.916Z,83.00
2018-04-19T05:10:51.967Z,83.20
2018-04-19T05:13:20.026Z,84.80
2018-04-19T05:15:48.090Z,83.80
2018-04-19T05:18:16.916Z,84.70
2018-04-19T05:20:44.979Z,84.70
2018-04-19T05:23:13.792Z,84.30
2018-04-19T05:25:41.855Z,84.30
2018-04-19T05:28:10.671Z,85.10
2018-04-19T05:30:38.724Z,85.10
2018-04-19T05:33:06.772Z,85.30
2018-04-19T05:35:34.895Z,86.00
2018-04-19T05:38:02.944Z,85.50
2018-04-19T05:40:31.007Z,86.20
2018-04-19T05:42:59.060Z,85.50
2018-04-19T05:45:27.124Z,85.60
2018-04-19T05:47:55.167Z,85.70
2018-04-19T05:50:23.236Z,86.00
2018-04-19T05:52:51.312Z,85.30
2018-04-19T05:55:19.372Z,85.20
2018-04-19T05:57:47.420Z,84.70
2018-04-19T06:00:15.476Z,85.80
2018-04-19T06:02:43.567Z,85.70
2018-04-19T06:05:11.619Z,85.60
2018-04-19T06:07:40.453Z,85.50
2018-04-19T06:10:08.547Z,85.50
2018-04-19T06:12:36.607Z,85.50
2018-04-19T06:15:04.708Z,85.30
2018-04-19T06:17:32.771Z,86.20
2018-04-19T06:20:01.698Z,84.20
2018-04-19T06:22:29.751Z,84.10
2018-04-19T06:24:58.594Z,83.90
2018-04-19T06:27:26.654Z,83.90
2018-04-19T06:29:54.704Z,83.40
2018-04-19T06:32:22.839Z,81.70
2018-04-19T06:34:50.895Z,81.60
2018-04-19T06:37:19.828Z,79.80
2018-04-19T06:39:47.879Z,79.70
2018-04-19T06:42:16.737Z,80.80
2018-04-19T06:44:44.802Z,80.70
2018-04-19T06:47:12.851Z,77.90
2018-04-19T06:49:41.678Z,78.80
2018-04-19T06:52:09.739Z,78.80
2018-04-19T06:54:38.663Z,77.80
2018-04-19T06:57:06.723Z,77.50
2018-04-19T06:59:35.564Z,75.70
2018-04-19T07:02:03.621Z,75.80
2018-04-19T07:04:32.444Z,75.60
2018-04-19T07:07:00.530Z,75.50
2018-04-19T07:09:28.598Z,75.40
2018-04-19T07:11:57.423Z,77.90
2018-04-19T07:14:25.508Z,77.80
2018-04-19T07:16:53.599Z,79.50
2018-04-19T07:19:21.651Z,78.40
2018-04-19T07:21:50.490Z,78.60
2018-04-19T07:24:18.540Z,78.50
2018-04-19T07:26:47.373Z,78.00
2018-04-19T07:29:15.448Z,78.00
2018-04-19T07:31:43.511Z,77.50
2018-04-19T07:34:12.336Z,76.70
2018-04-19T07:36:40.424Z,76.70
2018-04-19T07:39:09.263Z,76.30
2018-04-19T07:41:37.291Z,76.20
2018-04-19T07:44:05.352Z,77.60
2018-04-19T07:46:33.400Z,75.10
2018-04-19T07:49:01.451Z,76.60
2018-04-19T07:51:29.523Z,75.60
2018-04-19T07:53:58.337Z,73.70
2018-04-19T07:56:26.386Z,72.70
2018-04-19T07:58:54.519Z,71.50
2018-04-19T08:01:22.571Z,73.80
2018-04-19T08:03:51.397Z,74.00
2018-04-19T08:06:19.447Z,74.00
2018-04-19T08:08:47.607Z,71.40
2018-04-19T08:11:15.701Z,71.80
2018-04-19T08:13:43.751Z,73.10
2018-04-19T08:16:11.835Z,70.20
2018-04-19T08:18:39.921Z,69.90
2018-04-19T08:21:07.979Z,69.90
2018-04-19T08:23:36.798Z,72.30
2018-04-19T08:26:04.868Z,72.30
2018-04-19T08:28:33.691Z,72.90
2018-04-19T08:31:01.772Z,72.80
2018-04-19T08:33:30.593Z,73.00
2018-04-19T08:35:58.649Z,72.90
2018-04-19T08:38:27.473Z,74.20
2018-04-19T08:40:55.551Z,74.20
2018-04-19T08:43:23.631Z,72.50
2018-04-19T08:45:51.687Z,71.60
2018-04-19T08:48:20.522Z,68.70
2018-04-19T08:50:48.583Z,68.70
2018-04-19T08:53:17.399Z,69.30
2018-04-19T08:55:45.500Z,69.30
2018-04-19T08:58:13.551Z,72.10
2018-04-19T09:00:42.372Z,71.10
2018-04-19T09:03:10.439Z,71.10
2018-04-19T09:05:39.262Z,69.00
2018-04-19T09:08:07.352Z,68.80
2018-04-19T09:10:35.399Z,70.30
2018-04-19T09:13:04.242Z,62.30
2018-04-19T09:15:32.291Z,62.30
2018-04-19T09:18:01.120Z,62.70
2018-04-19T09:20:29.176Z,62.70
2018-04-19T09:22:58.041Z,63.00
2018-04-19T09:25:26.078Z,63.00
2018-04-19T09:27:54.936Z,63.20
2018-04-19T09:30:22.979Z,63.20
2018-04-19T09:32:51.066Z,63.90
2018-04-19T09:35:19.119Z,65.60
2018-04-19T09:37:47.950Z,63.40
2018-04-19T09:40:16.049Z,63.30
2018-04-19T09:42:44.097Z,64.50
2018-04-19T09:45:12.915Z,60.70
2018-04-19T09:47:40.979Z,60.70
2018-04-19T09:50:09.039Z,63.20
2018-04-19T09:52:37.096Z,60.20
2018-04-19T09:55:05.155Z,59.10
2018-04-19T09:57:33.207Z,59.00
2018-04-19T10:00:01.281Z,60.90
2018-04-19T10:02:29.422Z,57.70
2018-04-19T10:05:02.379Z,58.20
2018-04-19T10:07:30.435Z,56.10
2018-04-19T10:09:58.523Z,56.90
2018-04-19T10:12:26.583Z,56.90
2018-04-19T10:14:54.652Z,56.50
2018-04-19T10:17:22.742Z,52.90
2018-04-19T10:19:50.807Z,53.70
2018-04-19T10:22:19.621Z,52.70
2018-04-19T10:24:47.675Z,52.60
2018-04-19T10:27:15.728Z,51.10
2018-04-19T10:29:43.791Z,54.60
2018-04-19T10:32:11.849Z,55.60
2018-04-19T10:34:40.672Z,51.40
2018-04-19T10:37:08.760Z,51.40
2018-04-19T10:39:36.825Z,50.90
2018-04-19T10:42:04.873Z,53.50
2018-04-19T10:44:33.027Z,53.50
2018-04-19T10:47:01.104Z,50.80
2018-04-19T10:49:29.157Z,48.60
2018-04-19T10:51:57.983Z,49.00
2018-04-19T10:54:26.070Z,49.00
2018-04-19T10:56:54.127Z,49.00
2018-04-19T10:59:22.953Z,51.90
2018-04-19T11:01:51.008Z,51.80
2018-04-19T11:04:19.831Z,47.90
2018-04-19T11:06:47.884Z,47.90
2018-04-19T11:09:16.151Z,47.70
2018-04-19T11:11:44.207Z,47.60
2018-04-19T11:14:12.269Z,47.60
2018-04-19T11:16:41.192Z,47.10
2018-04-19T11:19:09.496Z,47.10
2018-04-19T11:21:37.573Z,47.20
2018-04-19T11:24:05.623Z,46.90
2018-04-19T11:26:34.454Z,47.10
2018-04-19T11:29:02.532Z,47.10
2018-04-19T11:31:30.599Z,46.60
2018-04-19T11:33:59.417Z,46.00
2018-04-19T11:36:27.516Z,46.00
2018-04-19T11:38:55.561Z,45.30
2018-04-19T11:41:24.380Z,45.10
2018-04-19T11:43:52.484Z,45.10
2018-04-19T11:46:20.547Z,45.70
2018-04-19T11:48:49.372Z,46.30
2018-04-19T11:51:17.436Z,46.40
2018-04-19T11:53:45.533Z,43.80
2018-04-19T11:56:13.623Z,45.60
2018-04-19T11:58:41.708Z,46.90
2018-04-19T12:01:09.812Z,46.10
2018-04-19T12:03:37.960Z,44.40
2018-04-19T12:06:06.024Z,45.90
2018-04-19T12:08:34.143Z,44.80
2018-04-19T12:11:02.212Z,44.60
2018-04-19T12:13:31.041Z,42.50
2018-04-19T12:15:59.083Z,42.50
2018-04-19T12:18:27.140Z,45.00
2018-04-19T12:20:55.207Z,44.70
2018-04-19T12:23:23.268Z,44.70
2018-04-19T12:25:51.359Z,44.30
2018-04-19T12:28:19.412Z,45.00
2018-04-19T12:30:47.464Z,44.90
2018-04-19T12:33:15.612Z,41.70
2018-04-19T12:35:43.667Z,43.80
2018-04-19T12:38:12.495Z,43.40
2018-04-19T12:40:40.548Z,43.40
2018-04-19T12:43:08.672Z,43.40
2018-04-19T12:45:36.763Z,42.20
2018-04-19T12:48:04.817Z,42.60
2018-04-19T12:50:33.643Z,43.00
2018-04-19T12:53:01.695Z,43.00
2018-04-19T12:55:30.533Z,42.00
2018-04-19T12:57:58.623Z,41.90
2018-04-19T13:00:26.674Z,42.60
2018-04-19T13:02:55.604Z,42.30
2018-04-19T13:05:23.685Z,42.20
2018-04-19T13:07:51.735Z,40.60
2018-04-19T13:10:19.799Z,39.60
2018-04-19T13:12:47.964Z,40.50
2018-04-19T13:15:16.039Z,39.50
2018-04-19T13:17:44.165Z,40.80
2018-04-19T13:20:12.303Z,41.70
2018-04-19T13:22:40.476Z,40.20
2018-04-19T13:25:08.536Z,39.60
2018-04-19T13:27:36.668Z,36.50
2018-04-19T13:30:04.717Z,37.70
2018-04-19T13:32:33.552Z,41.60
2018-04-19T13:35:01.636Z,41.60
2018-04-19T13:37:29.713Z,40.90
2018-04-19T13:39:57.759Z,39.10
2018-04-19T13:42:25.892Z,39.90
2018-04-19T13:44:53.974Z,39.30
2018-04-19T13:47:22.031Z,39.00
2018-04-19T13:49:50.851Z,38.10
2018-04-19T13:52:18.903Z,38.00
2018-04-19T13:54:46.951Z,35.20
2018-04-19T13:57:15.012Z,37.30
2018-04-19T13:59:43.102Z,33.00
2018-04-19T14:02:11.237Z,35.70
2018-04-19T14:04:39.279Z,33.50
2018-04-19T14:07:07.375Z,37.70
2018-04-19T14:09:35.420Z,36.00
2018-04-19T14:12:03.699Z,35.90
2018-04-19T14:14:32.534Z,35.70
2018-04-19T14:17:00.592Z,35.60
2018-04-19T14:19:29.417Z,36.20
2018-04-19T14:21:57.471Z,36.30
2018-04-19T14:24:26.329Z,35.10
2018-04-19T14:26:54.375Z,35.10
2018-04-19T14:29:22.428Z,37.90
2018-04-19T14:31:50.480Z,34.70
2018-04-19T14:34:18.536Z,33.60
2018-04-19T14:36:46.592Z,33.50
2018-04-19T14:39:14.647Z,34.20
2018-04-19T14:41:42.708Z,34.90
2018-04-19T14:44:10.762Z,33.30
2018-04-19T14:46:39.580Z,34.40
2018-04-19T14:49:07.638Z,34.40
2018-04-19T14:51:36.457Z,33.90
2018-04-19T14:54:04.513Z,33.80
2018-04-19T14:56:32.561Z,33.10
2018-04-19T14:59:00.620Z,31.10
2018-04-19T15:01:28.684Z,31.00
2018-04-19T15:03:56.723Z,32.00
2018-04-19T15:06:24.785Z,34.10
2018-04-19T15:08:52.880Z,33.10
2018-04-19T15:11:20.926Z,32.30
2018-04-19T15:13:49.750Z,34.50
2018-04-19T15:16:17.795Z,34.60
2018-04-19T15:18:45.847Z,34.50
2018-04-19T15:21:13.897Z,33.50
2018-04-19T15:23:41.991Z,32.80
2018-04-19T15:26:10.036Z,34.30
2018-04-19T15:28:38.863Z,35.10
2018-04-19T15:31:06.917Z,35.20
2018-04-19T15:33:34.996Z,34.40
2018-04-19T15:36:03.035Z,36.30
2018-04-19T15:38:31.107Z,34.00
2018-04-19T15:40:59.147Z,33.40
2018-04-19T15:43:27.286Z,34.20
2018-04-19T15:45:55.336Z,34.00
2018-04-19T15:48:24.225Z,34.50
2018-04-19T15:50:52.263Z,34.40
2018-04-19T15:53:20.316Z,34.00
2018-04-19T15:55:49.142Z,33.00
2018-04-19T15:58:17.231Z,32.90
2018-04-19T16:00:45.291Z,34.30
2018-04-19T16:03:13.335Z,34.30
2018-04-19T16:05:41.415Z,35.30
2018-04-19T16:08:09.466Z,33.90
2018-04-19T16:10:37.548Z,32.70
2018-04-19T16:13:05.607Z,34.70
2018-04-19T16:15:34.424Z,35.40
2018-04-19T16:18:02.470Z,35.40
2018-04-19T16:20:30.518Z,35.00
2018-04-19T16:22:58.572Z,35.30
2018-04-19T16:25:27.396Z,34.70
2018-04-19T16:27:55.448Z,34.90
2018-04-19T16:30:24.267Z,35.30
2018-04-19T16:32:52.306Z,35.40
2018-04-19T16:35:20.368Z,37.40
2018-04-19T16:37:48.425Z,34.80
2018-04-19T16:40:16.479Z,37.30
2018-04-19T16:42:45.298Z,40.30
2018-04-19T16:45:14.220Z,38.30
2018-04-19T16:47:42.309Z,38.30
2018-04-19T16:50:10.394Z,36.70
2018-04-19T16:52:39.299Z,41.90
2018-04-19T16:55:07.346Z,41.80
2018-04-19T16:57:36.172Z,36.90
2018-04-19T17:00:04.419Z,36.90
2018-04-19T17:02:32.459Z,39.60
2018-04-19T17:05:00.524Z,42.30
2018-04-19T17:07:28.627Z,43.10
2018-04-19T17:09:56.716Z,43.00
2018-04-19T17:12:24.759Z,43.20
2018-04-19T17:14:53.590Z,44.20
2018-04-19T17:17:21.639Z,44.30
2018-04-19T17:19:49.711Z,44.30
2018-04-19T17:22:17.766Z,45.50
2018-04-19T17:24:45.838Z,46.30
2018-04-19T17:27:14.661Z,48.10
2018-04-19T17:29:42.796Z,48.10
2018-04-19T17:32:11.640Z,50.20
2018-04-19T17:34:39.723Z,50.20
2018-04-19T17:37:07.799Z,50.50
2018-04-19T17:39:35.867Z,52.40
2018-04-19T17:42:03.923Z,51.70
2018-04-19T17:44:32.004Z,51.90
2018-04-19T17:47:00.080Z,52.40
2018-04-19T17:49:28.152Z,53.10
2018-04-19T17:51:56.267Z,54.60
2018-04-19T17:54:24.399Z,55.50
2018-04-19T17:56:52.450Z,56.30
2018-04-19T17:59:21.355Z,57.30
2018-04-19T18:01:49.477Z,57.30
2018-04-19T18:04:17.523Z,58.20
2018-04-19T18:06:46.355Z,59.70
2018-04-19T18:09:14.403Z,59.80
2018-04-19T18:11:42.495Z,61.80
2018-04-19T18:14:10.552Z,62.50
2018-04-19T18:16:38.607Z,65.00
2018-04-19T18:19:06.665Z,65.20
2018-04-19T18:21:35.492Z,66.30
2018-04-19T18:24:03.592Z,66.20
2018-04-19T18:26:31.655Z,67.30
2018-04-19T18:28:59.787Z,67.30
2018-04-19T18:31:27.832Z,68.20
2018-04-19T18:33:55.915Z,69.70
2018-04-19T18:36:23.968Z,68.70
2018-04-19T18:38:52.809Z,71.10
2018-04-19T18:41:20.856Z,71.10
2018-04-19T18:43:49.678Z,73.70
2018-04-19T18:46:17.742Z,73.60
2018-04-19T18:48:46.568Z,74.50
2018-04-19T18:51:14.648Z,74.40
2018-04-19T18:53:42.708Z,75.20
2018-04-19T18:56:11.540Z,77.30
2018-04-19T18:58:39.635Z,77.30
2018-04-19T19:01:07.703Z,76.00
2018-04-19T19:03:35.820Z,74.90
2018-04-19T19:06:05.333Z,74.80
2018-04-19T19:08:33.384Z,74.80
2018-04-19T19:11:02.228Z,73.50
2018-04-19T19:13:30.299Z,73.50
2018-04-19T19:16:13.231Z,72.60
2018-04-19T19:18:59.074Z,72.60
2018-04-19T19:21:27.213Z,73.70
2018-04-19T19:23:55.322Z,70.60
2018-04-19T19:26:23.376Z,72.40
2018-04-19T19:28:51.475Z,73.20
2018-04-19T19:31:19.527Z,70.20
2018-04-19T19:33:48.353Z,68.60
2018-04-19T19:36:16.392Z,68.60
2018-04-19T19:38:45.211Z,67.20
2018-04-19T19:41:14.070Z,67.60
2018-04-19T19:43:42.186Z,67.60
2018-04-19T19:46:10.241Z,66.70
2018-04-19T19:48:38.323Z,64.70
2018-04-19T19:51:06.376Z,65.90
2018-04-19T19:53:34.446Z,65.50
2018-04-19T19:56:03.272Z,64.90
2018-04-19T19:58:31.352Z,64.80
2018-04-19T20:00:59.401Z,62.50
2018-04-19T20:03:27.450Z,61.40
2018-04-19T20:05:55.511Z,61.20
2018-04-19T20:08:23.585Z,61.30
2018-04-19T20:10:52.399Z,60.60
2018-04-19T20:13:20.487Z,60.60
2018-04-19T20:15:48.532Z,60.20
2018-04-19T20:18:17.382Z,59.50
2018-04-19T20:20:45.425Z,59.50
2018-04-19T20:23:14.356Z,60.30
2018-04-19T20:25:42.412Z,60.30
2018-04-19T20:28:11.227Z,59.90
2018-04-19T20:30:40.045Z,59.80
2018-04-19T20:33:08.132Z,59.60
2018-04-19T20:35:36.187Z,59.70
2018-04-19T20:38:04.304Z,60.30
2018-04-19T20:40:32.380Z,60.40
2018-04-19T20:43:00.442Z,60.20
2018-04-19T20:45:29.254Z,59.60
2018-04-19T20:47:58.069Z,59.10
2018-04-19T20:50:26.172Z,59.10
2018-04-19T20:52:54.272Z,58.80
2018-04-19T20:55:22.344Z,58.00
2018-04-19T20:57:50.415Z,59.40
2018-04-19T21:00:18.476Z,60.60
2018-04-19T21:02:47.287Z,61.70
2018-04-19T21:05:15.355Z,61.70
2018-04-19T21:07:44.171Z,61.70
2018-04-19T21:10:12.998Z,62.80
2018-04-19T21:12:41.044Z,62.80
2018-04-19T21:15:09.893Z,65.80
2018-04-19T21:17:37.972Z,65.00
2018-04-19T21:20:06.032Z,65.50
2018-04-19T21:22:34.836Z,66.70
2018-04-19T21:25:02.896Z,66.60
2018-04-19T21:27:30.947Z,64.30
2018-04-19T21:29:59.079Z,63.80
2018-04-19T21:32:27.895Z,63.20
2018-04-19T21:34:55.962Z,63.20
2018-04-19T21:37:24.796Z,63.20
2018-04-19T21:39:52.858Z,63.00
2018-04-19T21:42:21.743Z,62.60
2018-04-19T21:44:49.744Z,62.60
2018-04-19T21:47:18.560Z,60.90
2018-04-19T21:49:46.809Z,60.90
2018-04-19T21:52:14.855Z,61.00
2018-04-19T21:54:42.913Z,59.60
2018-04-19T21:57:11.727Z,61.20
2018-04-19T21:59:39.779Z,61.20
2018-04-19T22:02:07.824Z,60.90
2018-04-19T22:04:35.879Z,61.00
2018-04-19T22:07:03.937Z,60.60
2018-04-19T22:09:31.980Z,60.30
2018-04-19T22:12:00.048Z,59.80
2018-04-19T22:14:28.101Z,58.40
2018-04-19T22:16:56.912Z,58.60
2018-04-19T22:19:24.973Z,58.60
2018-04-19T22:21:53.019Z,58.00
2018-04-19T22:24:21.072Z,57.70
2018-04-19T22:26:49.164Z,57.80
2018-04-19T22:29:17.312Z,57.80
2018-04-19T22:31:45.432Z,58.00
2018-04-19T22:34:13.518Z,60.60
2018-04-19T22:36:41.577Z,59.20
2018-04-19T22:39:10.388Z,59.20
2018-04-19T22:41:39.211Z,63.10
2018-04-19T22:44:07.298Z,63.10
2018-04-19T22:46:35.456Z,65.10
2018-04-19T22:49:04.280Z,67.10
2018-04-19T22:51:32.333Z,67.00
2018-04-19T22:54:00.385Z,67.60
2018-04-19T22:56:28.454Z,70.60
2018-04-19T22:58:56.508Z,71.10
2018-04-19T23:01:24.563Z,73.30
2018-04-19T23:03:52.603Z,73.80
2018-04-19T23:06:20.657Z,75.30
2018-04-19T23:08:49.467Z,78.40
2018-04-19T23:11:17.523Z,78.40
2018-04-19T23:13:45.562Z,79.40
2018-04-19T23:16:13.618Z,80.20
2018-04-19T23:18:41.721Z,81.30
2018-04-19T23:21:09.776Z,82.60
2018-04-19T23:23:38.585Z,83.90
2018-04-19T23:26:07.411Z,84.80
2018-04-19T23:28:35.462Z,84.80
2018-04-19T23:31:04.287Z,86.00
2018-04-19T23:33:32.331Z,86.00
2018-04-19T23:36:00.387Z,86.70
2018-04-19T23:38:28.431Z,87.20
2018-04-19T23:40:56.487Z,87.60
2018-04-19T23:43:24.540Z,87.90
2018-04-19T23:45:52.592Z,88.40
2018-04-19T23:48:20.640Z,89.20
2018-04-19T23:50:48.691Z,89.80
2018-04-19T23:53:16.738Z,90.30
2018-04-19T23:55:45.572Z,90.10
2018-04-19T23:58:13.608Z,90.10
